Time;durP1;ratioP1;P1;durP2;ratioP2;P2;SDS_P1;SDS_P2;PMS_P1;PMS_P2;Temp;Humidity;BMP_temperature;BMP_pressure;BME280_temperature;BME280_humidity;BME280_pressure;Samples;Min_cycle;Max_cycle;Signal;HPM_P1;HPM_P2
2021/07/02 00:01:06;;;;;;;6.88;5.15;;;;;;;;;;4997441;28;20052;-84
2021/07/02 00:03:31;;;;;;;7.22;5.05;;;;;;;;;;4997507;28;20056;-84
2021/07/02 00:05:57;;;;;;;7.70;4.97;;;;;;;;;;4997742;28;20494;-84
2021/07/02 00:08:26;;;;;;;6.18;5.03;;;;;;;;;;4997543;28;20041;-84
2021/07/02 00:10:53;;;;;;;7.10;5.15;;;;;;;;;;4998990;28;20043;-84
2021/07/02 00:13:18;;;;;;;8.35;5.65;;;;;;;;;;4994414;28;20044;-84
2021/07/02 00:15:45;;;;;;;7.25;5.40;;;;;;;;;;4994135;28;20120;-83
2021/07/02 00:18:10;;;;;;;7.18;5.15;;;;;;;;;;4994100;28;20056;-84
2021/07/02 00:20:37;;;;;;;7.10;5.47;;;;;;;;;;4997182;28;20467;-84
2021/07/02 00:23:02;;;;;;;7.88;5.00;;;;;;;;;;4997264;28;20048;-84
2021/07/02 00:25:28;;;;;;;8.88;6.10;;;;;;;;;;4997577;28;20041;-84
2021/07/02 00:28:01;;;;;;;8.63;5.13;;;;;;;;;;4996989;28;20041;-84
2021/07/02 00:30:27;;;;;;;7.72;5.22;;;;;;;;;;4983013;28;20025;-85
2021/07/02 00:32:58;;;;;;;7.07;5.13;;;;;;;;;;4981983;28;20059;-84
2021/07/02 00:35:30;;;;;;;8.75;5.63;;;;;;;;;;5013548;28;20498;-86
2021/07/02 00:37:57;;;;;;;6.47;5.15;;;;;;;;;;5013083;28;20056;-84
2021/07/02 00:40:22;;;;;;;8.02;4.88;;;;;;;;;;4996954;28;20068;-83
2021/07/02 00:42:48;;;;;;;7.13;4.75;;;;;;;;;;4981114;28;20064;-83
2021/07/02 00:45:13;;;;;;;7.55;4.53;;;;;;;;;;5015504;28;20097;-83
2021/07/02 00:47:39;;;;;;;7.78;5.03;;;;;;;;;;5001145;28;20039;-83
2021/07/02 00:50:05;;;;;;;8.13;5.28;;;;;;;;;;4984606;28;20021;-83
2021/07/02 00:52:32;;;;;;;8.07;5.38;;;;;;;;;;5017328;28;20033;-83
2021/07/02 00:54:58;;;;;;;8.52;5.38;;;;;;;;;;5000420;28;20492;-83
2021/07/02 00:57:23;;;;;;;6.55;4.88;;;;;;;;;;5000470;28;20427;-83
2021/07/02 00:59:49;;;;;;;7.47;5.15;;;;;;;;;;5017130;28;20026;-84
2021/07/02 01:02:14;;;;;;;7.30;5.00;;;;;;;;;;5016692;28;20498;-83
2021/07/02 01:04:41;;;;;;;8.65;5.00;;;;;;;;;;5016690;28;20079;-83
2021/07/02 01:07:07;;;;;;;6.63;5.00;;;;;;;;;;5016903;28;20041;-83
2021/07/02 01:09:32;;;;;;;6.60;4.75;;;;;;;;;;5016646;28;20120;-84
2021/07/02 01:11:59;;;;;;;7.10;4.43;;;;;;;;;;5016756;28;20479;-83
2021/07/02 01:14:24;;;;;;;8.52;5.60;;;;;;;;;;5016886;28;20471;-84
2021/07/02 01:16:50;;;;;;;6.82;5.10;;;;;;;;;;5017053;28;20044;-83
2021/07/02 01:19:16;;;;;;;8.23;5.05;;;;;;;;;;5000434;28;20064;-83
2021/07/02 01:21:42;;;;;;;9.90;4.63;;;;;;;;;;4984130;28;20526;-83
2021/07/02 01:24:07;;;;;;;7.00;4.47;;;;;;;;;;4999840;28;20033;-83
2021/07/02 01:26:34;;;;;;;5.55;4.15;;;;;;;;;;4984000;28;20034;-83
2021/07/02 01:28:59;;;;;;;6.78;4.63;;;;;;;;;;5000299;28;20026;-83
2021/07/02 01:31:26;;;;;;;7.03;4.72;;;;;;;;;;5000155;28;20091;-82
2021/07/02 01:33:51;;;;;;;5.22;4.38;;;;;;;;;;4999938;28;20030;-83
2021/07/02 01:36:21;;;;;;;5.60;4.47;;;;;;;;;;4999565;28;20037;-83
2021/07/02 01:38:48;;;;;;;7.10;5.05;;;;;;;;;;5000564;28;20056;-83
2021/07/02 01:41:14;;;;;;;7.45;5.07;;;;;;;;;;4999983;28;20076;-83
2021/07/02 01:43:39;;;;;;;6.65;4.57;;;;;;;;;;5000283;28;20072;-84
2021/07/02 01:46:05;;;;;;;8.88;4.85;;;;;;;;;;4999713;28;20143;-83
2021/07/02 01:48:30;;;;;;;6.10;4.15;;;;;;;;;;4999846;28;20044;-83
2021/07/02 01:50:57;;;;;;;7.05;4.15;;;;;;;;;;5015779;28;20034;-83
2021/07/02 01:53:23;;;;;;;6.40;4.57;;;;;;;;;;5015315;28;20037;-83
2021/07/02 01:55:48;;;;;;;8.30;4.60;;;;;;;;;;5015168;28;20545;-83
2021/07/02 01:58:14;;;;;;;8.10;4.60;;;;;;;;;;5003113;28;20064;-83
2021/07/02 02:00:40;;;;;;;6.00;4.30;;;;;;;;;;5012436;28;20069;-83
2021/07/02 02:03:05;;;;;;;6.00;4.40;;;;;;;;;;4996247;28;20026;-83
2021/07/02 02:05:32;;;;;;;5.38;4.75;;;;;;;;;;5000829;28;20038;-83
2021/07/02 02:07:57;;;;;;;10.23;5.20;;;;;;;;;;4995765;28;20129;-83
2021/07/02 02:10:23;;;;;;;6.18;5.07;;;;;;;;;;4996164;28;20030;-83
2021/07/02 02:12:48;;;;;;;6.35;4.78;;;;;;;;;;4998013;28;20058;-83
2021/07/02 02:15:14;;;;;;;6.88;4.97;;;;;;;;;;4996112;28;20041;-83
2021/07/02 02:17:40;;;;;;;6.68;5.10;;;;;;;;;;4996090;28;20387;-83
2021/07/02 02:20:06;;;;;;;6.32;5.43;;;;;;;;;;4995908;28;20038;-83
2021/07/02 02:22:32;;;;;;;5.40;4.85;;;;;;;;;;4998992;28;20033;-83
2021/07/02 02:24:57;;;;;;;6.32;4.97;;;;;;;;;;4979220;28;20026;-83
2021/07/02 02:27:23;;;;;;;5.78;4.32;;;;;;;;;;4995962;28;20085;-83
2021/07/02 02:29:48;;;;;;;6.65;5.38;;;;;;;;;;5012263;28;20040;-82
2021/07/02 02:32:13;;;;;;;6.25;4.63;;;;;;;;;;4995609;28;20030;-82
2021/07/02 02:34:39;;;;;;;6.05;4.43;;;;;;;;;;4979054;28;20040;-84
2021/07/02 02:37:05;;;;;;;5.85;4.97;;;;;;;;;;4995267;28;20022;-83
2021/07/02 02:39:32;;;;;;;5.45;4.60;;;;;;;;;;4979174;28;20030;-84
2021/07/02 02:41:57;;;;;;;6.93;5.05;;;;;;;;;;4995924;28;20476;-83
2021/07/02 02:44:24;;;;;;;5.57;4.72;;;;;;;;;;5011644;28;20026;-83
2021/07/02 02:46:49;;;;;;;6.07;5.00;;;;;;;;;;4995361;28;20033;-83
2021/07/02 02:49:15;;;;;;;6.35;4.82;;;;;;;;;;4997910;28;20030;-85
2021/07/02 02:51:41;;;;;;;6.47;4.88;;;;;;;;;;4995491;28;20029;-84
2021/07/02 02:54:06;;;;;;;5.78;4.60;;;;;;;;;;4998071;28;20056;-83
2021/07/02 02:56:33;;;;;;;7.43;5.43;;;;;;;;;;5031488;28;20041;-83
2021/07/02 02:58:59;;;;;;;5.28;4.45;;;;;;;;;;4995363;28;20040;-83
2021/07/02 03:01:24;;;;;;;5.45;4.88;;;;;;;;;;5014222;28;20029;-83
2021/07/02 03:03:50;;;;;;;6.05;4.57;;;;;;;;;;5014323;28;20036;-83
2021/07/02 03:06:16;;;;;;;4.72;4.25;;;;;;;;;;4998203;28;20057;-83
2021/07/02 03:08:42;;;;;;;6.90;5.00;;;;;;;;;;5014486;28;20053;-83
2021/07/02 03:11:07;;;;;;;6.78;5.10;;;;;;;;;;5031272;28;20387;-83
2021/07/02 03:13:33;;;;;;;6.75;4.82;;;;;;;;;;5014602;28;20033;-83
2021/07/02 03:15:58;;;;;;;7.95;5.13;;;;;;;;;;5030942;28;20503;-83
2021/07/02 03:18:24;;;;;;;5.53;4.68;;;;;;;;;;5013986;28;20025;-83
2021/07/02 03:20:49;;;;;;;6.95;5.03;;;;;;;;;;5014181;28;20033;-83
2021/07/02 03:23:15;;;;;;;8.05;4.82;;;;;;;;;;5014170;28;20029;-83
2021/07/02 03:25:40;;;;;;;5.25;4.75;;;;;;;;;;4998213;28;20058;-83
2021/07/02 03:28:06;;;;;;;5.63;5.03;;;;;;;;;;4997482;28;20044;-84
2021/07/02 03:30:31;;;;;;;5.82;4.50;;;;;;;;;;5014508;28;20041;-83
2021/07/02 03:32:56;;;;;;;8.00;5.07;;;;;;;;;;4997735;28;20045;-83
2021/07/02 03:35:22;;;;;;;5.93;4.57;;;;;;;;;;4981525;28;20052;-84
2021/07/02 03:37:50;;;;;;;6.03;4.70;;;;;;;;;;4998261;28;20021;-83
2021/07/02 03:40:16;;;;;;;4.95;4.45;;;;;;;;;;4998004;28;20042;-83
2021/07/02 03:42:41;;;;;;;5.25;4.53;;;;;;;;;;4997305;28;20040;-84
2021/07/02 03:45:07;;;;;;;5.70;4.63;;;;;;;;;;4998215;28;20030;-83
2021/07/02 03:47:32;;;;;;;5.38;4.40;;;;;;;;;;4981277;28;20033;-83
2021/07/02 03:49:58;;;;;;;5.80;4.50;;;;;;;;;;4994495;28;20079;-83
2021/07/02 03:52:24;;;;;;;6.22;5.68;;;;;;;;;;5010673;28;20033;-83
2021/07/02 03:54:53;;;;;;;5.80;4.75;;;;;;;;;;4978393;28;20492;-83
2021/07/02 03:57:20;;;;;;;5.03;4.28;;;;;;;;;;5026552;28;20049;-83
2021/07/02 03:59:50;;;;;;;5.18;4.60;;;;;;;;;;5013964;28;20025;-84
2021/07/02 04:02:16;;;;;;;5.72;4.97;;;;;;;;;;4980956;28;20083;-83
2021/07/02 04:04:41;;;;;;;5.55;4.75;;;;;;;;;;4977880;28;20068;-83
2021/07/02 04:07:08;;;;;;;5.10;4.60;;;;;;;;;;5010470;28;20041;-84
2021/07/02 04:09:33;;;;;;;4.65;4.20;;;;;;;;;;5010579;28;20037;-83
2021/07/02 04:11:59;;;;;;;5.57;4.28;;;;;;;;;;5010937;28;20029;-84
2021/07/02 04:14:26;;;;;;;5.53;4.70;;;;;;;;;;5012878;28;20073;-83
2021/07/02 04:16:53;;;;;;;5.20;4.55;;;;;;;;;;4996940;28;20029;-83
2021/07/02 04:19:18;;;;;;;6.55;4.78;;;;;;;;;;5002719;28;20025;-84
2021/07/02 04:21:44;;;;;;;6.85;4.45;;;;;;;;;;4981569;28;20177;-83
2021/07/02 04:24:10;;;;;;;5.18;4.57;;;;;;;;;;5017167;28;20391;-84
2021/07/02 04:26:35;;;;;;;5.97;4.88;;;;;;;;;;4985452;28;20038;-85
2021/07/02 04:29:01;;;;;;;5.38;4.35;;;;;;;;;;4984983;28;20476;-84
2021/07/02 04:31:28;;;;;;;4.80;4.18;;;;;;;;;;5001241;28;20044;-86
2021/07/02 04:33:57;;;;;;;6.50;4.68;;;;;;;;;;5000949;28;20036;-85
2021/07/02 04:36:23;;;;;;;6.05;3.80;;;;;;;;;;5001131;28;20040;-84
2021/07/02 04:38:49;;;;;;;5.38;4.28;;;;;;;;;;4969427;28;20038;-83
2021/07/02 04:41:14;;;;;;;4.80;4.03;;;;;;;;;;4981806;28;20040;-84
2021/07/02 04:43:40;;;;;;;4.75;3.45;;;;;;;;;;4981644;28;20034;-84
2021/07/02 04:46:08;;;;;;;5.47;4.30;;;;;;;;;;5013530;28;20034;-84
2021/07/02 04:48:33;;;;;;;5.30;4.45;;;;;;;;;;4997700;28;20097;-84
2021/07/02 04:50:59;;;;;;;4.25;3.35;;;;;;;;;;5001077;28;20061;-84
2021/07/02 04:53:25;;;;;;;9.60;4.38;;;;;;;;;;5017181;28;20029;-84
2021/07/02 04:55:51;;;;;;;5.43;4.00;;;;;;;;;;5000781;28;20041;-85
2021/07/02 04:58:18;;;;;;;4.75;4.03;;;;;;;;;;5016907;28;20060;-84
2021/07/02 05:00:43;;;;;;;5.40;4.60;;;;;;;;;;4984968;28;20387;-85
2021/07/02 05:03:10;;;;;;;4.55;4.13;;;;;;;;;;4984388;28;20030;-84
2021/07/02 05:05:35;;;;;;;4.72;4.00;;;;;;;;;;5000909;28;20025;-84
2021/07/02 05:08:02;;;;;;;5.53;4.35;;;;;;;;;;5017064;28;20037;-85
2021/07/02 05:10:27;;;;;;;4.70;4.00;;;;;;;;;;5000865;28;20064;-84
2021/07/02 05:12:53;;;;;;;4.97;4.22;;;;;;;;;;5000887;28;20079;-84
2021/07/02 05:15:18;;;;;;;6.10;4.07;;;;;;;;;;5016818;28;20112;-84
2021/07/02 05:17:44;;;;;;;4.82;3.78;;;;;;;;;;5016435;28;20061;-84
2021/07/02 05:20:10;;;;;;;4.95;3.75;;;;;;;;;;5015317;28;20032;-84
2021/07/02 05:22:35;;;;;;;5.65;3.75;;;;;;;;;;4981999;28;20384;-83
2021/07/02 05:25:01;;;;;;;4.95;3.58;;;;;;;;;;4998429;28;20118;-84
2021/07/02 05:27:26;;;;;;;4.60;3.95;;;;;;;;;;5000106;28;20029;-83
2021/07/02 05:29:53;;;;;;;6.50;4.28;;;;;;;;;;4999962;28;20026;-84
2021/07/02 05:32:18;;;;;;;5.95;3.55;;;;;;;;;;4982657;28;20033;-84
2021/07/02 05:34:44;;;;;;;4.75;4.25;;;;;;;;;;4994652;28;20040;-84
2021/07/02 05:37:10;;;;;;;4.75;3.80;;;;;;;;;;5012387;28;20049;-84
2021/07/02 05:39:36;;;;;;;4.38;3.35;;;;;;;;;;4980641;28;20026;-85
2021/07/02 05:42:01;;;;;;;6.95;4.10;;;;;;;;;;4996946;28;20026;-85
2021/07/02 05:44:28;;;;;;;5.72;4.10;;;;;;;;;;5004442;28;20108;-85
2021/07/02 05:46:55;;;;;;;4.88;3.58;;;;;;;;;;4996635;28;20475;-84
2021/07/02 05:49:20;;;;;;;7.40;4.25;;;;;;;;;;5016420;28;20097;-85
2021/07/02 05:51:46;;;;;;;7.40;4.22;;;;;;;;;;5009924;28;20041;-83
2021/07/02 05:54:12;;;;;;;5.20;3.80;;;;;;;;;;4999834;28;20434;-83
2021/07/02 05:56:38;;;;;;;6.10;4.47;;;;;;;;;;4999820;28;20434;-84
2021/07/02 05:59:03;;;;;;;11.48;4.15;;;;;;;;;;4996018;28;20051;-84
2021/07/02 06:01:29;;;;;;;8.82;5.28;;;;;;;;;;5028759;28;20041;-83
2021/07/02 06:03:54;;;;;;;7.82;4.30;;;;;;;;;;5023210;28;20014;-84
2021/07/02 06:06:20;;;;;;;8.90;4.78;;;;;;;;;;4985437;28;20034;-84
2021/07/02 06:08:46;;;;;;;6.93;4.50;;;;;;;;;;4996157;28;20033;-84
2021/07/02 06:11:12;;;;;;;9.70;5.63;;;;;;;;;;4996510;28;20041;-84
2021/07/02 06:13:39;;;;;;;9.13;5.20;;;;;;;;;;4996109;28;20052;-84
2021/07/02 06:16:04;;;;;;;13.50;5.97;;;;;;;;;;4995639;28;20522;-85
2021/07/02 06:18:30;;;;;;;7.63;5.28;;;;;;;;;;4998973;28;20029;-84
2021/07/02 06:20:55;;;;;;;8.15;5.15;;;;;;;;;;4983118;28;20483;-85
2021/07/02 06:23:22;;;;;;;9.43;5.40;;;;;;;;;;4982789;28;20029;-85
2021/07/02 06:25:49;;;;;;;10.73;5.80;;;;;;;;;;4999396;28;20034;-84
2021/07/02 06:28:15;;;;;;;8.73;5.47;;;;;;;;;;5000237;28;20040;-85
2021/07/02 06:30:41;;;;;;;7.00;5.03;;;;;;;;;;4982730;28;20437;-85
2021/07/02 06:33:06;;;;;;;9.73;4.72;;;;;;;;;;4982825;28;20037;-85
2021/07/02 06:35:32;;;;;;;10.38;5.43;;;;;;;;;;4982099;28;20091;-85
2021/07/02 06:37:57;;;;;;;11.00;5.03;;;;;;;;;;4999248;28;20090;-85
2021/07/02 06:40:23;;;;;;;10.63;5.57;;;;;;;;;;4982743;28;20021;-84
2021/07/02 06:42:48;;;;;;;10.38;5.43;;;;;;;;;;5014764;28;20064;-84
2021/07/02 06:45:15;;;;;;;12.00;5.20;;;;;;;;;;4999098;28;20483;-83
2021/07/02 06:47:51;;;;;;;28.23;6.03;;;;;;;;;;4982865;28;20033;-83
2021/07/02 06:50:17;;;;;;;18.67;6.50;;;;;;;;;;5013452;28;20080;-83
2021/07/02 06:52:42;;;;;;;19.88;6.70;;;;;;;;;;5014865;28;20490;-84
2021/07/02 06:55:08;;;;;;;22.92;6.72;;;;;;;;;;5015140;28;20414;-86
2021/07/02 06:57:33;;;;;;;11.15;6.45;;;;;;;;;;5014316;28;20378;-84
2021/07/02 07:00:03;;;;;;;11.23;7.05;;;;;;;;;;5015271;28;20516;-85
2021/07/02 07:02:28;;;;;;;10.77;6.45;;;;;;;;;;5025136;28;20041;-84
2021/07/02 07:04:54;;;;;;;9.80;6.97;;;;;;;;;;5023457;28;20075;-84
2021/07/02 07:07:19;;;;;;;10.95;5.55;;;;;;;;;;5014166;28;20091;-84
2021/07/02 07:09:45;;;;;;;13.23;7.13;;;;;;;;;;4995866;28;20025;-84
2021/07/02 07:12:10;;;;;;;11.32;6.15;;;;;;;;;;4982032;28;20037;-83
2021/07/02 07:14:37;;;;;;;9.82;5.35;;;;;;;;;;4997710;28;20037;-83
2021/07/02 07:17:05;;;;;;;13.10;6.60;;;;;;;;;;4976186;28;20502;-83
2021/07/02 07:19:30;;;;;;;11.45;5.55;;;;;;;;;;4982812;28;20033;-84
2021/07/02 07:21:56;;;;;;;10.90;5.18;;;;;;;;;;4993338;28;20502;-82
2021/07/02 07:24:21;;;;;;;8.63;6.03;;;;;;;;;;5007742;28;20126;-82
2021/07/02 07:26:47;;;;;;;8.10;5.28;;;;;;;;;;4994100;28;20399;-82
2021/07/02 07:29:12;;;;;;;8.15;4.63;;;;;;;;;;4994633;28;20117;-82
2021/07/02 07:31:38;;;;;;;8.23;5.22;;;;;;;;;;5006181;28;20029;-84
2021/07/02 07:34:05;;;;;;;8.07;4.95;;;;;;;;;;5019554;28;20053;-82
2021/07/02 07:36:31;;;;;;;7.72;4.80;;;;;;;;;;4995171;28;20037;-82
2021/07/02 07:38:57;;;;;;;5.88;4.55;;;;;;;;;;5010913;28;20033;-81
2021/07/02 07:41:23;;;;;;;8.07;5.35;;;;;;;;;;4994010;28;20042;-82
2021/07/02 07:43:50;;;;;;;6.30;4.32;;;;;;;;;;5026117;28;20033;-82
2021/07/02 07:46:15;;;;;;;5.90;4.60;;;;;;;;;;4997639;28;20029;-82
2021/07/02 07:48:40;;;;;;;6.22;4.80;;;;;;;;;;4997393;28;20514;-82
2021/07/02 07:51:16;;;;;;;7.28;4.70;;;;;;;;;;5029848;28;20480;-83
2021/07/02 07:53:43;;;;;;;9.18;5.45;;;;;;;;;;5008597;28;20030;-83
2021/07/02 07:56:10;;;;;;;6.55;5.15;;;;;;;;;;4993825;28;20038;-84
2021/07/02 07:58:36;;;;;;;7.50;4.85;;;;;;;;;;4996189;28;20492;-83
2021/07/02 08:01:02;;;;;;;9.18;5.85;;;;;;;;;;4993702;28;20044;-84
2021/07/02 08:03:27;;;;;;;6.97;5.47;;;;;;;;;;4983706;28;20033;-82
2021/07/02 08:05:54;;;;;;;7.28;4.78;;;;;;;;;;4996781;28;20402;-84
2021/07/02 08:08:19;;;;;;;8.68;5.40;;;;;;;;;;5009946;28;20111;-83
2021/07/02 08:10:45;;;;;;;7.47;5.90;;;;;;;;;;5026660;28;20037;-83
2021/07/02 08:13:10;;;;;;;7.93;5.35;;;;;;;;;;5012934;28;20104;-83
2021/07/02 08:15:36;;;;;;;7.93;5.43;;;;;;;;;;4996029;28;20046;-83
2021/07/02 08:18:02;;;;;;;8.40;5.32;;;;;;;;;;4994994;28;20064;-83
2021/07/02 08:20:27;;;;;;;7.60;5.38;;;;;;;;;;5012876;28;20030;-82
2021/07/02 08:22:53;;;;;;;8.77;5.82;;;;;;;;;;4980471;28;20068;-83
2021/07/02 08:25:18;;;;;;;7.55;5.95;;;;;;;;;;4997202;28;20034;-83
2021/07/02 08:30:28;;;;;;;10.77;7.10;;;;;;;;;;5018444;28;20479;-83
2021/07/02 08:32:54;;;;;;;7.28;6.00;;;;;;;;;;5013399;28;20076;-84
2021/07/02 08:35:21;;;;;;;9.15;5.80;;;;;;;;;;5029519;28;20029;-84
2021/07/02 08:37:52;;;;;;;9.23;6.45;;;;;;;;;;5010969;28;20637;-83
2021/07/02 08:40:18;;;;;;;8.32;6.13;;;;;;;;;;5013344;28;20368;-84
2021/07/02 08:42:43;;;;;;;7.60;6.13;;;;;;;;;;5013425;28;20087;-83
2021/07/02 08:45:10;;;;;;;8.38;5.95;;;;;;;;;;5013435;28;20033;-83
2021/07/02 08:47:35;;;;;;;8.70;5.72;;;;;;;;;;5003257;28;20033;-83
2021/07/02 08:50:01;;;;;;;9.15;6.88;;;;;;;;;;5005805;28;20033;-83
2021/07/02 08:52:26;;;;;;;8.93;6.40;;;;;;;;;;4980629;28;20088;-83
2021/07/02 08:54:52;;;;;;;11.35;6.57;;;;;;;;;;4997337;28;20044;-83
2021/07/02 08:57:17;;;;;;;7.78;6.32;;;;;;;;;;4996869;28;20073;-83
2021/07/02 08:59:43;;;;;;;9.60;6.18;;;;;;;;;;4994026;28;20034;-84
2021/07/02 09:02:25;;;;;;;11.00;7.05;;;;;;;;;;5010228;28;20500;-84
2021/07/02 09:04:50;;;;;;;;;;;;;;;;;;5013309;28;20025;-84
2021/07/02 09:07:18;;;;;;;8.68;6.60;;;;;;;;;;5015959;28;19979;-83
2021/07/02 09:09:50;;;;;;;9.75;7.00;;;;;;;;;;5017207;28;20027;-84
2021/07/02 09:12:18;;;;;;;10.88;7.18;;;;;;;;;;5033382;28;20128;-83
2021/07/02 09:15:06;;;;;;;10.88;6.85;;;;;;;;;;5016897;28;20037;-84
2021/07/02 09:17:53;;;;;;;9.68;7.43;;;;;;;;;;5016878;28;20026;-84
2021/07/02 09:20:21;;;;;;;10.98;6.97;;;;;;;;;;5014442;28;20551;-84
2021/07/02 09:23:00;;;;;;;9.48;6.53;;;;;;;;;;4999513;28;20036;-84
2021/07/02 09:25:31;;;;;;;8.85;6.88;;;;;;;;;;5016165;28;20065;-84
2021/07/02 09:28:10;;;;;;;11.40;7.07;;;;;;;;;;4980588;28;20117;-84
2021/07/02 09:30:37;;;;;;;7.82;7.03;;;;;;;;;;4980370;28;20060;-84
2021/07/02 09:33:07;;;;;;;8.63;6.88;;;;;;;;;;4980345;28;20038;-83
2021/07/02 09:35:47;;;;;;;9.20;7.50;;;;;;;;;;4980388;28;20498;-84
2021/07/02 09:38:14;;;;;;;8.73;6.53;;;;;;;;;;5013683;28;20480;-84
2021/07/02 09:40:40;;;;;;;8.68;6.80;;;;;;;;;;4980936;28;20399;-84
2021/07/02 09:43:18;;;;;;;8.25;7.43;;;;;;;;;;4980756;28;20026;-84
2021/07/02 09:45:45;;;;;;;8.98;6.63;;;;;;;;;;4996510;28;20061;-83
2021/07/02 09:48:14;;;;;;;8.75;6.97;;;;;;;;;;4984168;28;20086;-84
2021/07/02 09:50:44;;;;;;;7.78;6.43;;;;;;;;;;4982042;28;20034;-83
2021/07/02 09:53:10;;;;;;;9.05;6.82;;;;;;;;;;4982622;28;20028;-84
2021/07/02 09:55:42;;;;;;;10.20;7.18;;;;;;;;;;5016126;28;20029;-83
2021/07/02 09:58:14;;;;;;;8.85;7.20;;;;;;;;;;4999538;28;20056;-83
2021/07/02 10:00:41;;;;;;;8.10;7.30;;;;;;;;;;4996370;28;20056;-83
2021/07/02 10:03:07;;;;;;;7.47;6.45;;;;;;;;;;4996438;28;20053;-84
2021/07/02 10:05:53;;;;;;;6.88;6.18;;;;;;;;;;5012626;28;20479;-84
2021/07/02 10:08:20;;;;;;;8.05;6.55;;;;;;;;;;5015697;28;20017;-83
2021/07/02 10:10:46;;;;;;;7.40;6.13;;;;;;;;;;4998832;28;20036;-83
2021/07/02 10:13:11;;;;;;;7.90;6.28;;;;;;;;;;4999172;28;20025;-84
2021/07/02 10:15:37;;;;;;;9.02;7.10;;;;;;;;;;4998956;28;20029;-84
2021/07/02 10:18:02;;;;;;;7.43;6.72;;;;;;;;;;5014703;28;20041;-83
2021/07/02 10:20:29;;;;;;;8.70;6.70;;;;;;;;;;5014975;28;20036;-84
2021/07/02 10:22:57;;;;;;;10.13;6.35;;;;;;;;;;5015066;28;20028;-83
2021/07/02 10:25:24;;;;;;;10.75;6.40;;;;;;;;;;5018903;28;20045;-82
2021/07/02 10:27:50;;;;;;;7.50;5.65;;;;;;;;;;5012750;28;20030;-83
2021/07/02 10:30:16;;;;;;;8.43;6.18;;;;;;;;;;4995218;28;20045;-84
2021/07/02 10:32:41;;;;;;;7.30;6.25;;;;;;;;;;5011668;28;20033;-83
2021/07/02 10:35:07;;;;;;;9.70;6.50;;;;;;;;;;5005598;28;20083;-85
2021/07/02 10:37:33;;;;;;;8.57;6.82;;;;;;;;;;5015092;28;20136;-84
2021/07/02 10:40:00;;;;;;;10.35;6.63;;;;;;;;;;5011223;28;20084;-85
2021/07/02 10:42:26;;;;;;;8.05;6.43;;;;;;;;;;5011786;28;20079;-82
2021/07/02 10:44:52;;;;;;;10.70;7.20;;;;;;;;;;4998313;28;20030;-83
2021/07/02 10:47:17;;;;;;;10.35;7.75;;;;;;;;;;5031463;28;20036;-84
2021/07/02 10:49:43;;;;;;;8.27;6.82;;;;;;;;;;4998139;28;20454;-84
2021/07/02 10:52:22;;;;;;;11.32;6.95;;;;;;;;;;4981696;28;20033;-84
2021/07/02 10:54:51;;;;;;;9.70;6.32;;;;;;;;;;4981787;28;20037;-84
2021/07/02 10:57:18;;;;;;;6.78;5.95;;;;;;;;;;4998592;28;20094;-83
2021/07/02 10:59:49;;;;;;;6.65;5.97;;;;;;;;;;4998677;28;20415;-84
2021/07/02 11:02:16;;;;;;;8.75;6.75;;;;;;;;;;5014066;28;20391;-84
2021/07/02 11:04:42;;;;;;;9.05;6.60;;;;;;;;;;5008159;28;20586;-83
2021/07/02 11:07:13;;;;;;;10.00;6.13;;;;;;;;;;4998188;28;20479;-85
2021/07/02 11:09:51;;;;;;;8.38;6.53;;;;;;;;;;5035086;28;20038;-84
2021/07/02 11:12:32;;;;;;;7.78;6.20;;;;;;;;;;5012340;28;20030;-82
2021/07/02 11:14:58;;;;;;;8.43;6.43;;;;;;;;;;5014580;28;20032;-83
2021/07/02 11:17:28;;;;;;;7.45;6.22;;;;;;;;;;5030444;28;20376;-84
2021/07/02 11:20:07;;;;;;;9.10;6.57;;;;;;;;;;5011189;28;20075;-83
2021/07/02 11:22:34;;;;;;;9.02;6.57;;;;;;;;;;5045932;28;20041;-83
2021/07/02 11:25:05;;;;;;;8.73;6.47;;;;;;;;;;5013800;28;20041;-83
2021/07/02 11:27:41;;;;;;;10.85;7.20;;;;;;;;;;4981484;28;20068;-83
2021/07/02 11:30:27;;;;;;;8.90;6.68;;;;;;;;;;5028695;28;20154;-83
2021/07/02 11:32:54;;;;;;;8.05;6.75;;;;;;;;;;5020479;28;20029;-83
2021/07/02 11:35:24;;;;;;;8.43;7.07;;;;;;;;;;4979101;28;20087;-83
2021/07/02 11:38:02;;;;;;;8.55;6.85;;;;;;;;;;5011729;28;20038;-83
2021/07/02 11:40:38;;;;;;;7.93;6.63;;;;;;;;;;5016319;28;20097;-83
2021/07/02 11:43:05;;;;;;;7.93;6.45;;;;;;;;;;4998417;28;20060;-83
2021/07/02 11:45:44;;;;;;;16.50;9.23;;;;;;;;;;4979098;28;20056;-82
2021/07/02 11:48:27;;;;;;;19.30;16.75;;;;;;;;;;4981202;28;20026;-83
2021/07/02 11:51:00;;;;;;;35.03;28.00;;;;;;;;;;4977256;28;20751;-83
2021/07/02 11:53:35;;;;;;;28.70;21.27;;;;;;;;;;5010935;28;20041;-83
2021/07/02 11:56:03;;;;;;;21.42;14.93;;;;;;;;;;4994560;28;20030;-83
2021/07/02 11:58:34;;;;;;;16.70;14.10;;;;;;;;;;4994454;28;20030;-84
2021/07/02 12:01:03;;;;;;;15.73;12.05;;;;;;;;;;4994239;28;20084;-83
2021/07/02 12:03:28;;;;;;;14.88;10.55;;;;;;;;;;5030241;28;20087;-83
2021/07/02 12:05:58;;;;;;;12.02;8.70;;;;;;;;;;5013525;28;20021;-83
2021/07/02 12:08:25;;;;;;;11.07;8.32;;;;;;;;;;5030285;28;20040;-84
2021/07/02 12:11:05;;;;;;;10.85;8.07;;;;;;;;;;5013315;28;20112;-83
2021/07/02 12:13:32;;;;;;;9.80;7.45;;;;;;;;;;4969500;28;20091;-83
2021/07/02 12:16:01;;;;;;;11.52;7.55;;;;;;;;;;4980050;28;20423;-83
2021/07/02 12:18:27;;;;;;;11.77;8.07;;;;;;;;;;4995304;28;20124;-84
2021/07/02 12:21:03;;;;;;;9.32;7.72;;;;;;;;;;4979450;28;20028;-84
2021/07/02 12:23:37;;;;;;;11.65;7.43;;;;;;;;;;4979643;28;20095;-83
2021/07/02 12:26:12;;;;;;;9.70;7.80;;;;;;;;;;4981572;28;20041;-83
2021/07/02 12:29:05;;;;;;;10.57;7.70;;;;;;;;;;5029699;28;20491;-83
2021/07/02 12:31:32;;;;;;;9.15;7.63;;;;;;;;;;5013565;28;20083;-84
2021/07/02 12:33:57;;;;;;;8.93;7.45;;;;;;;;;;4996796;28;20041;-83
2021/07/02 12:36:23;;;;;;;7.88;7.07;;;;;;;;;;4980795;28;20030;-83
2021/07/02 12:39:11;;;;;;;11.18;7.32;;;;;;;;;;4997049;28;20022;-84
2021/07/02 12:41:47;;;;;;;9.75;7.35;;;;;;;;;;4984664;28;20039;-84
2021/07/02 12:44:21;;;;;;;9.55;6.63;;;;;;;;;;5001486;28;20029;-84
2021/07/02 12:46:46;;;;;;;11.60;7.40;;;;;;;;;;5001442;28;20033;-84
2021/07/02 12:49:25;;;;;;;8.05;6.50;;;;;;;;;;4999571;28;20030;-84
2021/07/02 12:54:47;;;;;;;8.73;6.38;;;;;;;;;;5014031;28;20044;-83
2021/07/02 12:57:37;;;;;;;9.93;6.57;;;;;;;;;;4998736;28;20316;-83
2021/07/02 13:00:02;;;;;;;10.05;6.32;;;;;;;;;;4997531;28;20041;-84
2021/07/02 13:02:32;;;;;;;7.32;6.38;;;;;;;;;;5024879;28;20479;-84
2021/07/02 13:05:03;;;;;;;8.82;6.55;;;;;;;;;;5033370;28;20025;-84
2021/07/02 13:08:04;;;;;;;7.75;5.78;;;;;;;;;;5033352;28;20033;-85
2021/07/02 13:10:32;;;;;;;7.93;5.93;;;;;;;;;;5018563;28;20046;-84
2021/07/02 13:13:17;;;;;;;8.80;6.13;;;;;;;;;;5012180;28;20432;-84
2021/07/02 13:15:48;;;;;;;7.30;6.15;;;;;;;;;;5013469;28;20030;-84
2021/07/02 13:18:24;;;;;;;8.00;7.20;;;;;;;;;;5026210;28;20034;-86
2021/07/02 13:20:59;;;;;;;7.85;6.15;;;;;;;;;;5016829;28;20026;-84
2021/07/02 13:23:27;;;;;;;7.28;6.50;;;;;;;;;;5016247;28;20119;-84
2021/07/02 13:26:04;;;;;;;8.32;6.35;;;;;;;;;;4984418;28;20038;-84
2021/07/02 13:28:31;;;;;;;7.05;6.28;;;;;;;;;;5028493;28;20094;-84
2021/07/02 13:30:58;;;;;;;5.95;5.35;;;;;;;;;;4996651;28;20508;-84
2021/07/02 13:33:25;;;;;;;6.55;5.63;;;;;;;;;;5007818;28;20042;-86
2021/07/02 13:35:50;;;;;;;7.60;6.05;;;;;;;;;;4998933;28;20029;-85
2021/07/02 13:38:17;;;;;;;6.90;5.75;;;;;;;;;;5013852;28;20162;-84
2021/07/02 13:40:47;;;;;;;8.77;6.30;;;;;;;;;;4997443;28;20428;-85
2021/07/02 13:43:20;;;;;;;8.68;6.28;;;;;;;;;;5005411;28;20030;-84
2021/07/02 13:46:04;;;;;;;9.95;7.43;;;;;;;;;;4997199;28;20026;-85
2021/07/02 13:48:31;;;;;;;8.80;5.93;;;;;;;;;;5014291;28;20050;-84
2021/07/02 13:50:56;;;;;;;8.02;6.20;;;;;;;;;;5010163;28;20037;-86
2021/07/02 13:53:24;;;;;;;6.70;5.13;;;;;;;;;;4990871;28;20029;-86
2021/07/02 13:55:50;;;;;;;9.15;6.13;;;;;;;;;;4980577;28;20112;-85
2021/07/02 13:58:15;;;;;;;7.40;6.07;;;;;;;;;;4996084;28;20042;-84
2021/07/02 14:00:45;;;;;;;7.60;5.63;;;;;;;;;;5012922;28;20026;-84
2021/07/02 14:03:12;;;;;;;6.88;6.15;;;;;;;;;;4997899;28;20041;-85
2021/07/02 14:05:39;;;;;;;6.57;5.72;;;;;;;;;;5012157;28;20044;-86
2021/07/02 14:08:05;;;;;;;8.35;6.05;;;;;;;;;;5014312;28;20033;-83
2021/07/02 14:10:31;;;;;;;6.70;4.95;;;;;;;;;;5014079;28;20025;-82
2021/07/02 14:12:56;;;;;;;6.68;5.45;;;;;;;;;;5013144;28;20037;-82
2021/07/02 14:15:22;;;;;;;6.70;5.32;;;;;;;;;;5030226;28;20025;-82
2021/07/02 14:17:47;;;;;;;7.32;5.32;;;;;;;;;;5015174;28;20025;-83
2021/07/02 14:20:13;;;;;;;7.25;5.00;;;;;;;;;;5015594;28;20037;-83
2021/07/02 14:22:43;;;;;;;8.52;5.10;;;;;;;;;;5015589;28;20041;-84
2021/07/02 14:25:23;;;;;;;7.18;5.80;;;;;;;;;;5015111;28;20030;-84
2021/07/02 14:27:49;;;;;;;5.85;5.18;;;;;;;;;;5031906;28;20025;-85
2021/07/02 14:30:16;;;;;;;8.25;4.85;;;;;;;;;;5015490;28;20028;-84
2021/07/02 14:32:42;;;;;;;8.77;5.35;;;;;;;;;;5015262;28;20183;-83
2021/07/02 14:35:08;;;;;;;7.03;4.85;;;;;;;;;;5031638;28;20033;-83
2021/07/02 14:37:34;;;;;;;6.30;5.28;;;;;;;;;;5015057;28;20483;-83
2021/07/02 14:39:59;;;;;;;8.73;5.80;;;;;;;;;;5031409;28;20037;-82
2021/07/02 14:42:25;;;;;;;5.55;4.95;;;;;;;;;;5031312;28;20080;-83
2021/07/02 14:44:50;;;;;;;7.82;5.63;;;;;;;;;;5014147;28;20491;-83
2021/07/02 14:47:16;;;;;;;7.75;5.55;;;;;;;;;;4998362;28;20037;-83
2021/07/02 14:49:42;;;;;;;8.32;5.93;;;;;;;;;;5014675;28;20075;-83